sensor_id;sensor_type;location;lat;lon;timestamp;pressure;altitude;pressure_sealevel;temperature;humidity
16613;BME280;8419;52.358;9.752;2023-06-22T00:01:26;101211.00;;;30.73;38.41
16613;BME280;8419;52.358;9.752;2023-06-22T00:04:11;101207.00;;;30.72;38.46
16613;BME280;8419;52.358;9.752;2023-06-22T00:06:57;101215.00;;;30.77;38.43
16613;BME280;8419;52.358;9.752;2023-06-22T00:09:42;101212.00;;;30.75;38.46
16613;BME280;8419;52.358;9.752;2023-06-22T00:12:28;101211.00;;;30.71;38.51
16613;BME280;8419;52.358;9.752;2023-06-22T00:15:14;101218.00;;;30.59;38.79
16613;BME280;8419;52.358;9.752;2023-06-22T00:18:00;101224.00;;;30.59;38.84
16613;BME280;8419;52.358;9.752;2023-06-22T00:20:45;101221.00;;;30.49;39.15
16613;BME280;8419;52.358;9.752;2023-06-22T00:23:32;101222.00;;;30.48;39.25
16613;BME280;8419;52.358;9.752;2023-06-22T00:26:20;101216.00;;;30.38;39.49
16613;BME280;8419;52.358;9.752;2023-06-22T00:29:05;101221.00;;;30.40;39.52
16613;BME280;8419;52.358;9.752;2023-06-22T00:31:51;101236.00;;;30.32;39.57
16613;BME280;8419;52.358;9.752;2023-06-22T00:34:36;101237.00;;;30.33;39.42
16613;BME280;8419;52.358;9.752;2023-06-22T00:37:22;101244.00;;;30.36;39.13
16613;BME280;8419;52.358;9.752;2023-06-22T00:40:11;101240.00;;;30.40;38.75
16613;BME280;8419;52.358;9.752;2023-06-22T00:42:58;101237.00;;;30.33;38.47
16613;BME280;8419;52.358;9.752;2023-06-22T00:45:44;101231.00;;;30.37;38.10
16613;BME280;8419;52.358;9.752;2023-06-22T00:48:29;101236.00;;;30.37;37.82
16613;BME280;8419;52.358;9.752;2023-06-22T00:51:16;101232.00;;;30.22;37.91
16613;BME280;8419;52.358;9.752;2023-06-22T00:54:01;101225.00;;;30.14;37.85
16613;BME280;8419;52.358;9.752;2023-06-22T00:56:47;101215.00;;;30.08;37.79
16613;BME280;8419;52.358;9.752;2023-06-22T00:59:33;101211.00;;;30.09;37.61
16613;BME280;8419;52.358;9.752;2023-06-22T01:02:19;101201.00;;;30.24;37.20
16613;BME280;8419;52.358;9.752;2023-06-22T01:05:05;101206.00;;;30.16;37.22
16613;BME280;8419;52.358;9.752;2023-06-22T01:08:03;101201.00;;;30.13;37.16
16613;BME280;8419;52.358;9.752;2023-06-22T01:10:52;101197.00;;;30.14;37.07
16613;BME280;8419;52.358;9.752;2023-06-22T01:13:43;101196.00;;;30.02;37.15
16613;BME280;8419;52.358;9.752;2023-06-22T01:16:33;101192.00;;;29.96;37.18
16613;BME280;8419;52.358;9.752;2023-06-22T01:19:37;101183.00;;;29.99;37.03
16613;BME280;8419;52.358;9.752;2023-06-22T01:22:31;101182.00;;;29.85;37.21
16613;BME280;8419;52.358;9.752;2023-06-22T01:25:26;101180.00;;;29.74;37.35
16613;BME280;8419;52.358;9.752;2023-06-22T01:28:31;101175.00;;;29.78;37.23
16613;BME280;8419;52.358;9.752;2023-06-22T01:31:19;101168.00;;;29.74;37.23
16613;BME280;8419;52.358;9.752;2023-06-22T01:34:06;101159.00;;;29.68;37.29
16613;BME280;8419;52.358;9.752;2023-06-22T01:36:54;101160.00;;;29.65;37.30
16613;BME280;8419;52.358;9.752;2023-06-22T01:39:39;101182.00;;;29.67;37.26
16613;BME280;8419;52.358;9.752;2023-06-22T01:42:26;101177.00;;;29.67;37.23
16613;BME280;8419;52.358;9.752;2023-06-22T01:45:12;101174.00;;;29.70;37.15
16613;BME280;8419;52.358;9.752;2023-06-22T01:47:58;101184.00;;;29.63;37.28
16613;BME280;8419;52.358;9.752;2023-06-22T01:50:45;101178.00;;;29.69;37.15
16613;BME280;8419;52.358;9.752;2023-06-22T01:53:31;101172.00;;;29.69;37.14
16613;BME280;8419;52.358;9.752;2023-06-22T01:56:18;101174.00;;;29.70;37.13
16613;BME280;8419;52.358;9.752;2023-06-22T01:59:09;101171.00;;;29.68;37.17
16613;BME280;8419;52.358;9.752;2023-06-22T02:02:01;101177.00;;;29.59;37.29
16613;BME280;8419;52.358;9.752;2023-06-22T02:04:52;101181.00;;;29.55;37.37
16613;BME280;8419;52.358;9.752;2023-06-22T02:07:44;101180.00;;;29.58;37.30
16613;BME280;8419;52.358;9.752;2023-06-22T02:10:32;101176.00;;;29.60;37.23
16613;BME280;8419;52.358;9.752;2023-06-22T02:13:19;101188.00;;;29.59;37.25
16613;BME280;8419;52.358;9.752;2023-06-22T02:16:04;101190.00;;;29.56;37.31
16613;BME280;8419;52.358;9.752;2023-06-22T02:18:51;101190.00;;;29.50;37.36
16613;BME280;8419;52.358;9.752;2023-06-22T02:21:37;101189.00;;;29.54;37.30
16613;BME280;8419;52.358;9.752;2023-06-22T02:24:23;101184.00;;;29.50;37.34
16613;BME280;8419;52.358;9.752;2023-06-22T02:27:08;101197.00;;;29.57;37.17
16613;BME280;8419;52.358;9.752;2023-06-22T02:29:56;101188.00;;;29.53;37.21
16613;BME280;8419;52.358;9.752;2023-06-22T02:32:41;101183.00;;;29.50;37.25
16613;BME280;8419;52.358;9.752;2023-06-22T02:35:27;101190.00;;;29.44;37.30
16613;BME280;8419;52.358;9.752;2023-06-22T02:38:16;101199.00;;;29.43;37.30
16613;BME280;8419;52.358;9.752;2023-06-22T02:41:02;101199.00;;;29.40;37.35
16613;BME280;8419;52.358;9.752;2023-06-22T02:43:48;101203.00;;;29.39;37.34
16613;BME280;8419;52.358;9.752;2023-06-22T02:46:33;101210.00;;;29.48;37.18
16613;BME280;8419;52.358;9.752;2023-06-22T02:49:18;101215.00;;;29.37;37.31
16613;BME280;8419;52.358;9.752;2023-06-22T02:52:05;101213.00;;;29.28;37.45
16613;BME280;8419;52.358;9.752;2023-06-22T02:54:53;101226.00;;;29.31;37.41
16613;BME280;8419;52.358;9.752;2023-06-22T02:57:38;101233.00;;;29.31;37.40
16613;BME280;8419;52.358;9.752;2023-06-22T03:00:28;101238.00;;;29.27;37.42
16613;BME280;8419;52.358;9.752;2023-06-22T03:03:15;101241.00;;;29.27;37.41
16613;BME280;8419;52.358;9.752;2023-06-22T03:06:00;101235.00;;;29.25;37.47
16613;BME280;8419;52.358;9.752;2023-06-22T03:08:46;101246.00;;;29.22;37.51
16613;BME280;8419;52.358;9.752;2023-06-22T03:11:32;101245.00;;;29.12;37.71
16613;BME280;8419;52.358;9.752;2023-06-22T03:14:18;101242.00;;;29.07;37.79
16613;BME280;8419;52.358;9.752;2023-06-22T03:17:04;101238.00;;;29.09;37.77
16613;BME280;8419;52.358;9.752;2023-06-22T03:19:50;101230.00;;;29.12;37.72
16613;BME280;8419;52.358;9.752;2023-06-22T03:22:35;101234.00;;;29.02;37.92
16613;BME280;8419;52.358;9.752;2023-06-22T03:25:21;101228.00;;;28.99;37.97
16613;BME280;8419;52.358;9.752;2023-06-22T03:28:06;101234.00;;;29.04;37.90
16613;BME280;8419;52.358;9.752;2023-06-22T03:30:52;101237.00;;;29.04;37.90
16613;BME280;8419;52.358;9.752;2023-06-22T03:33:37;101241.00;;;28.97;38.00
16613;BME280;8419;52.358;9.752;2023-06-22T03:36:23;101233.00;;;29.03;37.95
16613;BME280;8419;52.358;9.752;2023-06-22T03:39:09;101234.00;;;29.12;37.83
16613;BME280;8419;52.358;9.752;2023-06-22T03:41:54;101234.00;;;29.14;37.83
16613;BME280;8419;52.358;9.752;2023-06-22T03:44:40;101226.00;;;29.07;37.96
16613;BME280;8419;52.358;9.752;2023-06-22T03:47:26;101228.00;;;29.15;37.85
16613;BME280;8419;52.358;9.752;2023-06-22T03:50:11;101225.00;;;29.10;37.92
16613;BME280;8419;52.358;9.752;2023-06-22T03:52:58;101225.00;;;29.16;37.87
16613;BME280;8419;52.358;9.752;2023-06-22T03:55:51;101220.00;;;29.13;37.97
16613;BME280;8419;52.358;9.752;2023-06-22T03:58:37;101231.00;;;29.23;37.83
16613;BME280;8419;52.358;9.752;2023-06-22T04:01:27;101220.00;;;29.31;37.72
16613;BME280;8419;52.358;9.752;2023-06-22T04:04:13;101216.00;;;29.34;37.65
16613;BME280;8419;52.358;9.752;2023-06-22T04:06:58;101223.00;;;29.35;37.67
16613;BME280;8419;52.358;9.752;2023-06-22T04:09:44;101223.00;;;29.36;37.69
16613;BME280;8419;52.358;9.752;2023-06-22T04:12:30;101220.00;;;29.41;37.71
16613;BME280;8419;52.358;9.752;2023-06-22T04:15:15;101235.00;;;29.45;37.75
16613;BME280;8419;52.358;9.752;2023-06-22T04:18:01;101228.00;;;29.50;37.63
16613;BME280;8419;52.358;9.752;2023-06-22T04:20:47;101224.00;;;29.60;37.57
16613;BME280;8419;52.358;9.752;2023-06-22T04:23:32;101229.00;;;29.56;37.66
16613;BME280;8419;52.358;9.752;2023-06-22T04:26:18;101232.00;;;29.60;37.65
16613;BME280;8419;52.358;9.752;2023-06-22T04:29:05;101230.00;;;29.68;37.53
16613;BME280;8419;52.358;9.752;2023-06-22T04:31:51;101225.00;;;29.68;37.54
16613;BME280;8419;52.358;9.752;2023-06-22T04:34:38;101225.00;;;29.68;37.59
16613;BME280;8419;52.358;9.752;2023-06-22T04:37:25;101223.00;;;29.70;37.59
16613;BME280;8419;52.358;9.752;2023-06-22T04:40:11;101230.00;;;29.78;37.51
16613;BME280;8419;52.358;9.752;2023-06-22T04:43:00;101227.00;;;29.83;37.39
16613;BME280;8419;52.358;9.752;2023-06-22T04:45:47;101239.00;;;29.87;37.30
16613;BME280;8419;52.358;9.752;2023-06-22T04:48:37;101231.00;;;29.95;37.23
16613;BME280;8419;52.358;9.752;2023-06-22T04:51:23;101233.00;;;30.07;37.02
16613;BME280;8419;52.358;9.752;2023-06-22T04:54:14;101235.00;;;30.10;36.98
16613;BME280;8419;52.358;9.752;2023-06-22T04:57:00;101228.00;;;30.13;36.99
16613;BME280;8419;52.358;9.752;2023-06-22T04:59:46;101231.00;;;30.27;36.75
16613;BME280;8419;52.358;9.752;2023-06-22T05:02:31;101232.00;;;30.07;37.10
16613;BME280;8419;52.358;9.752;2023-06-22T05:05:18;101230.00;;;30.07;37.10
16613;BME280;8419;52.358;9.752;2023-06-22T05:08:04;101228.00;;;30.04;37.17
16613;BME280;8419;52.358;9.752;2023-06-22T05:10:51;101219.00;;;30.07;37.11
16613;BME280;8419;52.358;9.752;2023-06-22T05:13:37;101218.00;;;30.05;37.16
16613;BME280;8419;52.358;9.752;2023-06-22T05:16:23;101226.00;;;30.11;37.10
16613;BME280;8419;52.358;9.752;2023-06-22T05:19:11;101220.00;;;30.13;37.08
16613;BME280;8419;52.358;9.752;2023-06-22T05:21:57;101212.00;;;30.11;37.14
16613;BME280;8419;52.358;9.752;2023-06-22T05:24:43;101212.00;;;30.21;37.02
16613;BME280;8419;52.358;9.752;2023-06-22T05:27:29;101212.00;;;30.23;37.05
16613;BME280;8419;52.358;9.752;2023-06-22T05:30:14;101209.00;;;30.30;36.95
16613;BME280;8419;52.358;9.752;2023-06-22T05:33:01;101211.00;;;30.38;36.84
16613;BME280;8419;52.358;9.752;2023-06-22T05:35:46;101215.00;;;30.44;36.73
16613;BME280;8419;52.358;9.752;2023-06-22T05:38:32;101213.00;;;30.58;36.52
16613;BME280;8419;52.358;9.752;2023-06-22T05:41:18;101206.00;;;30.65;36.44
16613;BME280;8419;52.358;9.752;2023-06-22T05:44:05;101209.00;;;30.67;36.44
16613;BME280;8419;52.358;9.752;2023-06-22T05:46:50;101211.00;;;30.73;36.37
16613;BME280;8419;52.358;9.752;2023-06-22T05:49:36;101209.00;;;30.78;36.27
16613;BME280;8419;52.358;9.752;2023-06-22T05:52:22;101209.00;;;30.86;36.11
16613;BME280;8419;52.358;9.752;2023-06-22T05:55:09;101221.00;;;30.76;36.33
16613;BME280;8419;52.358;9.752;2023-06-22T05:57:55;101207.00;;;30.75;36.38
16613;BME280;8419;52.358;9.752;2023-06-22T06:00:41;101211.00;;;30.79;36.34
16613;BME280;8419;52.358;9.752;2023-06-22T06:03:28;101215.00;;;30.82;36.29
16613;BME280;8419;52.358;9.752;2023-06-22T06:06:14;101211.00;;;30.84;36.29
16613;BME280;8419;52.358;9.752;2023-06-22T06:09:00;101209.00;;;30.86;36.23
16613;BME280;8419;52.358;9.752;2023-06-22T06:11:45;101205.00;;;30.84;36.30
16613;BME280;8419;52.358;9.752;2023-06-22T06:14:33;101209.00;;;30.86;36.25
16613;BME280;8419;52.358;9.752;2023-06-22T06:17:19;101203.00;;;30.96;36.09
16613;BME280;8419;52.358;9.752;2023-06-22T06:20:07;101214.00;;;30.99;36.03
16613;BME280;8419;52.358;9.752;2023-06-22T06:22:53;101216.00;;;30.96;36.14
16613;BME280;8419;52.358;9.752;2023-06-22T06:25:39;101215.00;;;31.03;36.01
16613;BME280;8419;52.358;9.752;2023-06-22T06:28:25;101206.00;;;31.01;36.06
16613;BME280;8419;52.358;9.752;2023-06-22T06:31:11;101200.00;;;31.04;36.04
16613;BME280;8419;52.358;9.752;2023-06-22T06:33:57;101195.00;;;31.11;35.92
16613;BME280;8419;52.358;9.752;2023-06-22T06:36:43;101194.00;;;31.20;35.75
16613;BME280;8419;52.358;9.752;2023-06-22T06:39:29;101187.00;;;31.22;35.73
16613;BME280;8419;52.358;9.752;2023-06-22T06:42:14;101193.00;;;31.19;35.77
16613;BME280;8419;52.358;9.752;2023-06-22T06:45:00;101188.00;;;31.23;35.68
16613;BME280;8419;52.358;9.752;2023-06-22T06:47:46;101189.00;;;31.34;35.47
16613;BME280;8419;52.358;9.752;2023-06-22T06:50:32;101180.00;;;31.38;35.33
16613;BME280;8419;52.358;9.752;2023-06-22T06:53:18;101182.00;;;31.39;35.31
16613;BME280;8419;52.358;9.752;2023-06-22T06:56:03;101175.00;;;31.45;35.26
16613;BME280;8419;52.358;9.752;2023-06-22T06:58:51;101172.00;;;31.59;35.04
16613;BME280;8419;52.358;9.752;2023-06-22T07:01:36;101173.00;;;31.53;35.18
16613;BME280;8419;52.358;9.752;2023-06-22T07:04:22;101177.00;;;31.59;35.17
16613;BME280;8419;52.358;9.752;2023-06-22T07:07:08;101187.00;;;31.75;34.92
16613;BME280;8419;52.358;9.752;2023-06-22T07:09:53;101184.00;;;31.80;34.78
16613;BME280;8419;52.358;9.752;2023-06-22T07:12:39;101188.00;;;31.85;34.70
16613;BME280;8419;52.358;9.752;2023-06-22T07:15:25;101186.00;;;31.99;34.55
16613;BME280;8419;52.358;9.752;2023-06-22T07:18:10;101191.00;;;32.17;34.25
16613;BME280;8419;52.358;9.752;2023-06-22T07:20:56;101198.00;;;32.24;34.15
16613;BME280;8419;52.358;9.752;2023-06-22T07:23:41;101186.00;;;32.27;34.09
16613;BME280;8419;52.358;9.752;2023-06-22T07:26:27;101200.00;;;32.32;34.00
16613;BME280;8419;52.358;9.752;2023-06-22T07:29:13;101200.00;;;32.38;33.95
16613;BME280;8419;52.358;9.752;2023-06-22T07:31:58;101199.00;;;32.44;33.81
16613;BME280;8419;52.358;9.752;2023-06-22T07:34:46;101190.00;;;32.54;33.67
16613;BME280;8419;52.358;9.752;2023-06-22T07:37:31;101182.00;;;32.47;33.75
16613;BME280;8419;52.358;9.752;2023-06-22T07:40:18;101183.00;;;32.52;33.71
16613;BME280;8419;52.358;9.752;2023-06-22T07:43:04;101169.00;;;32.49;33.74
16613;BME280;8419;52.358;9.752;2023-06-22T07:45:49;101169.00;;;32.46;33.79
16613;BME280;8419;52.358;9.752;2023-06-22T07:48:38;101173.00;;;32.48;33.77
16613;BME280;8419;52.358;9.752;2023-06-22T07:51:26;101172.00;;;32.46;33.80
16613;BME280;8419;52.358;9.752;2023-06-22T07:54:12;101182.00;;;32.59;33.64
16613;BME280;8419;52.358;9.752;2023-06-22T07:56:57;101180.00;;;32.79;33.35
16613;BME280;8419;52.358;9.752;2023-06-22T07:59:43;101165.00;;;32.97;33.10
16613;BME280;8419;52.358;9.752;2023-06-22T08:02:28;101174.00;;;33.13;32.83
16613;BME280;8419;52.358;9.752;2023-06-22T08:05:15;101180.00;;;33.23;32.64
16613;BME280;8419;52.358;9.752;2023-06-22T08:08:00;101172.00;;;33.39;32.42
16613;BME280;8419;52.358;9.752;2023-06-22T08:10:46;101174.00;;;33.43;32.39
16613;BME280;8419;52.358;9.752;2023-06-22T08:13:31;101172.00;;;33.57;32.25
16613;BME280;8419;52.358;9.752;2023-06-22T08:16:17;101171.00;;;33.82;31.97
16613;BME280;8419;52.358;9.752;2023-06-22T08:19:03;101169.00;;;33.86;31.92
16613;BME280;8419;52.358;9.752;2023-06-22T08:21:48;101183.00;;;33.96;31.80
16613;BME280;8419;52.358;9.752;2023-06-22T08:24:34;101191.00;;;34.16;31.56
16613;BME280;8419;52.358;9.752;2023-06-22T08:27:20;101185.00;;;34.16;31.60
16613;BME280;8419;52.358;9.752;2023-06-22T08:30:09;101185.00;;;34.24;31.53
16613;BME280;8419;52.358;9.752;2023-06-22T08:32:55;101179.00;;;34.30;31.46
16613;BME280;8419;52.358;9.752;2023-06-22T08:35:41;101185.00;;;34.37;31.42
16613;BME280;8419;52.358;9.752;2023-06-22T08:38:27;101183.00;;;34.42;31.38
16613;BME280;8419;52.358;9.752;2023-06-22T08:41:12;101189.00;;;34.55;31.21
16613;BME280;8419;52.358;9.752;2023-06-22T08:43:58;101189.00;;;34.69;31.08
16613;BME280;8419;52.358;9.752;2023-06-22T08:46:44;101192.00;;;34.63;31.16
16613;BME280;8419;52.358;9.752;2023-06-22T08:49:30;101185.00;;;34.70;31.07
16613;BME280;8419;52.358;9.752;2023-06-22T08:52:16;101189.00;;;34.70;31.14
16613;BME280;8419;52.358;9.752;2023-06-22T08:55:02;101178.00;;;34.70;31.18
16613;BME280;8419;52.358;9.752;2023-06-22T08:57:48;101173.00;;;34.80;31.09
16613;BME280;8419;52.358;9.752;2023-06-22T09:00:34;101173.00;;;34.94;30.92
16613;BME280;8419;52.358;9.752;2023-06-22T09:03:20;101179.00;;;35.20;30.56
16613;BME280;8419;52.358;9.752;2023-06-22T09:06:05;101180.00;;;35.18;30.57
16613;BME280;8419;52.358;9.752;2023-06-22T09:08:51;101172.00;;;35.25;30.50
16613;BME280;8419;52.358;9.752;2023-06-22T09:11:37;101169.00;;;35.42;30.30
16613;BME280;8419;52.358;9.752;2023-06-22T09:14:22;101165.00;;;35.42;30.28
16613;BME280;8419;52.358;9.752;2023-06-22T09:17:08;101156.00;;;35.49;30.25
16613;BME280;8419;52.358;9.752;2023-06-22T09:19:54;101151.00;;;35.57;30.18
16613;BME280;8419;52.358;9.752;2023-06-22T09:22:40;101147.00;;;35.70;30.04
16613;BME280;8419;52.358;9.752;2023-06-22T09:25:25;101137.00;;;35.91;29.85
16613;BME280;8419;52.358;9.752;2023-06-22T09:28:11;101136.00;;;36.05;29.72
16613;BME280;8419;52.358;9.752;2023-06-22T09:30:56;101135.00;;;36.19;29.50
16613;BME280;8419;52.358;9.752;2023-06-22T09:33:44;101130.00;;;36.23;29.46
16613;BME280;8419;52.358;9.752;2023-06-22T09:36:29;101134.00;;;36.25;29.46
16613;BME280;8419;52.358;9.752;2023-06-22T09:39:15;101125.00;;;36.10;29.65
16613;BME280;8419;52.358;9.752;2023-06-22T09:42:00;101118.00;;;36.07;29.67
16613;BME280;8419;52.358;9.752;2023-06-22T09:44:46;101117.00;;;36.12;29.60
16613;BME280;8419;52.358;9.752;2023-06-22T09:47:31;101117.00;;;36.18;29.55
16613;BME280;8419;52.358;9.752;2023-06-22T09:50:17;101126.00;;;36.17;29.53
16613;BME280;8419;52.358;9.752;2023-06-22T09:53:03;101142.00;;;36.40;29.30
16613;BME280;8419;52.358;9.752;2023-06-22T09:55:49;101141.00;;;36.50;29.16
16613;BME280;8419;52.358;9.752;2023-06-22T09:58:34;101138.00;;;36.53;29.12
16613;BME280;8419;52.358;9.752;2023-06-22T10:01:19;101125.00;;;36.68;28.98
16613;BME280;8419;52.358;9.752;2023-06-22T10:04:06;101126.00;;;36.74;28.97
16613;BME280;8419;52.358;9.752;2023-06-22T10:06:52;101128.00;;;36.85;28.84
16613;BME280;8419;52.358;9.752;2023-06-22T10:09:37;101120.00;;;36.87;28.81
16613;BME280;8419;52.358;9.752;2023-06-22T10:12:23;101114.00;;;36.66;29.13
16613;BME280;8419;52.358;9.752;2023-06-22T10:15:10;101123.00;;;36.52;29.37
16613;BME280;8419;52.358;9.752;2023-06-22T10:17:56;101106.00;;;36.48;29.48
16613;BME280;8419;52.358;9.752;2023-06-22T10:20:43;101109.00;;;36.49;29.41
16613;BME280;8419;52.358;9.752;2023-06-22T10:23:28;101107.00;;;36.42;29.50
16613;BME280;8419;52.358;9.752;2023-06-22T10:26:13;101108.00;;;36.24;29.72
16613;BME280;8419;52.358;9.752;2023-06-22T10:28:59;101115.00;;;36.14;29.88
16613;BME280;8419;52.358;9.752;2023-06-22T10:31:45;101104.00;;;36.14;29.89
16613;BME280;8419;52.358;9.752;2023-06-22T10:34:30;101087.00;;;36.22;29.77
16613;BME280;8419;52.358;9.752;2023-06-22T10:37:16;101094.00;;;36.33;29.73
16613;BME280;8419;52.358;9.752;2023-06-22T10:40:02;101091.00;;;36.48;29.64
16613;BME280;8419;52.358;9.752;2023-06-22T10:42:48;101080.00;;;36.62;29.56
16613;BME280;8419;52.358;9.752;2023-06-22T10:45:37;101088.00;;;36.80;29.40
16613;BME280;8419;52.358;9.752;2023-06-22T10:48:23;101084.00;;;37.05;29.16
16613;BME280;8419;52.358;9.752;2023-06-22T10:51:09;101070.00;;;36.88;29.38
16613;BME280;8419;52.358;9.752;2023-06-22T10:53:54;101073.00;;;36.95;29.37
16613;BME280;8419;52.358;9.752;2023-06-22T10:56:40;101077.00;;;36.99;29.28
16613;BME280;8419;52.358;9.752;2023-06-22T10:59:25;101076.00;;;37.00;29.30
16613;BME280;8419;52.358;9.752;2023-06-22T11:02:12;101064.00;;;37.11;29.13
16613;BME280;8419;52.358;9.752;2023-06-22T11:04:57;101063.00;;;37.22;29.03
16613;BME280;8419;52.358;9.752;2023-06-22T11:07:46;101049.00;;;37.22;29.07
16613;BME280;8419;52.358;9.752;2023-06-22T11:10:33;101047.00;;;37.26;29.04
16613;BME280;8419;52.358;9.752;2023-06-22T11:13:19;101046.00;;;37.45;28.78
16613;BME280;8419;52.358;9.752;2023-06-22T11:16:05;101058.00;;;37.57;28.65
16613;BME280;8419;52.358;9.752;2023-06-22T11:18:50;101051.00;;;37.61;28.60
16613;BME280;8419;52.358;9.752;2023-06-22T11:21:37;101050.00;;;37.46;28.79
16613;BME280;8419;52.358;9.752;2023-06-22T11:24:23;101051.00;;;37.45;28.76
16613;BME280;8419;52.358;9.752;2023-06-22T11:27:09;101043.00;;;37.50;28.65
16613;BME280;8419;52.358;9.752;2023-06-22T11:29:54;101054.00;;;37.45;28.72
16613;BME280;8419;52.358;9.752;2023-06-22T11:32:40;101051.00;;;37.35;28.78
16613;BME280;8419;52.358;9.752;2023-06-22T11:35:26;101041.00;;;37.29;28.82
16613;BME280;8419;52.358;9.752;2023-06-22T11:38:11;101040.00;;;37.32;28.77
16613;BME280;8419;52.358;9.752;2023-06-22T11:40:58;101036.00;;;37.47;28.63
16613;BME280;8419;52.358;9.752;2023-06-22T11:43:44;101032.00;;;37.61;28.53
16613;BME280;8419;52.358;9.752;2023-06-22T11:46:29;101024.00;;;37.92;28.21
16613;BME280;8419;52.358;9.752;2023-06-22T11:49:17;101020.00;;;38.10;28.05
16613;BME280;8419;52.358;9.752;2023-06-22T11:52:04;101018.00;;;38.28;27.80
16613;BME280;8419;52.358;9.752;2023-06-22T11:54:49;101011.00;;;38.46;27.67
16613;BME280;8419;52.358;9.752;2023-06-22T11:57:53;101001.00;;;39.18;27.00
16613;BME280;8419;52.358;9.752;2023-06-22T12:00:39;100994.00;;;39.83;26.30
16613;BME280;8419;52.358;9.752;2023-06-22T12:03:25;100988.00;;;40.15;26.04
16613;BME280;8419;52.358;9.752;2023-06-22T12:06:10;100980.00;;;40.67;25.61
16613;BME280;8419;52.358;9.752;2023-06-22T12:08:56;100979.00;;;41.20;25.10
16613;BME280;8419;52.358;9.752;2023-06-22T12:11:41;100966.00;;;40.89;25.40
16613;BME280;8419;52.358;9.752;2023-06-22T12:14:29;100976.00;;;40.71;25.53
16613;BME280;8419;52.358;9.752;2023-06-22T12:17:15;100979.00;;;40.53;25.61
16613;BME280;8419;52.358;9.752;2023-06-22T12:20:00;100971.00;;;40.48;25.58
16613;BME280;8419;52.358;9.752;2023-06-22T12:22:46;100964.00;;;40.47;25.44
16613;BME280;8419;52.358;9.752;2023-06-22T12:25:32;100960.00;;;40.31;25.53
16613;BME280;8419;52.358;9.752;2023-06-22T12:28:18;100948.00;;;40.07;25.80
16613;BME280;8419;52.358;9.752;2023-06-22T12:31:04;100950.00;;;39.98;25.81
16613;BME280;8419;52.358;9.752;2023-06-22T12:33:50;100942.00;;;39.70;26.12
16613;BME280;8419;52.358;9.752;2023-06-22T12:36:35;100940.00;;;39.50;26.24
16613;BME280;8419;52.358;9.752;2023-06-22T12:39:20;100935.00;;;39.52;26.28
16613;BME280;8419;52.358;9.752;2023-06-22T12:42:08;100938.00;;;39.43;26.40
16613;BME280;8419;52.358;9.752;2023-06-22T12:44:54;100935.00;;;39.52;26.29
16613;BME280;8419;52.358;9.752;2023-06-22T12:47:42;100938.00;;;39.44;26.38
16613;BME280;8419;52.358;9.752;2023-06-22T12:50:28;100934.00;;;39.43;26.41
16613;BME280;8419;52.358;9.752;2023-06-22T12:53:14;100933.00;;;39.41;26.52
16613;BME280;8419;52.358;9.752;2023-06-22T12:55:59;100929.00;;;39.18;26.78
16613;BME280;8419;52.358;9.752;2023-06-22T12:58:50;100925.00;;;38.99;26.98
16613;BME280;8419;52.358;9.752;2023-06-22T13:01:37;100910.00;;;38.84;27.19
16613;BME280;8419;52.358;9.752;2023-06-22T13:04:23;100905.00;;;38.67;27.40
16613;BME280;8419;52.358;9.752;2023-06-22T13:07:08;100906.00;;;38.44;27.66
16613;BME280;8419;52.358;9.752;2023-06-22T13:09:57;100909.00;;;38.29;27.86
16613;BME280;8419;52.358;9.752;2023-06-22T13:12:47;100909.00;;;38.17;28.07
16613;BME280;8419;52.358;9.752;2023-06-22T13:15:33;100897.00;;;38.12;28.62
16613;BME280;8419;52.358;9.752;2023-06-22T13:18:19;100894.00;;;37.78;29.73
16613;BME280;8419;52.358;9.752;2023-06-22T13:21:07;100893.00;;;37.54;30.33
16613;BME280;8419;52.358;9.752;2023-06-22T13:23:52;100904.00;;;37.36;30.69
16613;BME280;8419;52.358;9.752;2023-06-22T13:26:38;100895.00;;;37.11;31.29
16613;BME280;8419;52.358;9.752;2023-06-22T13:29:23;100884.00;;;36.99;31.56
16613;BME280;8419;52.358;9.752;2023-06-22T13:32:09;100883.00;;;36.81;31.96
16613;BME280;8419;52.358;9.752;2023-06-22T13:34:55;100882.00;;;36.79;32.31
16613;BME280;8419;52.358;9.752;2023-06-22T13:37:43;100890.00;;;36.66;32.69
16613;BME280;8419;52.358;9.752;2023-06-22T13:40:29;100888.00;;;36.68;32.95
16613;BME280;8419;52.358;9.752;2023-06-22T13:43:27;100882.00;;;36.69;33.10
16613;BME280;8419;52.358;9.752;2023-06-22T13:46:13;100881.00;;;36.57;33.23
16613;BME280;8419;52.358;9.752;2023-06-22T13:48:58;100888.00;;;36.50;33.40
16613;BME280;8419;52.358;9.752;2023-06-22T13:51:44;100890.00;;;36.42;33.45
16613;BME280;8419;52.358;9.752;2023-06-22T13:54:29;100887.00;;;36.32;33.48
16613;BME280;8419;52.358;9.752;2023-06-22T13:57:17;100895.00;;;36.30;33.54
16613;BME280;8419;52.358;9.752;2023-06-22T14:00:05;100889.00;;;36.30;33.55
16613;BME280;8419;52.358;9.752;2023-06-22T14:02:52;100882.00;;;36.32;33.50
16613;BME280;8419;52.358;9.752;2023-06-22T14:05:38;100872.00;;;36.33;33.46
16613;BME280;8419;52.358;9.752;2023-06-22T14:08:23;100851.00;;;36.19;33.58
16613;BME280;8419;52.358;9.752;2023-06-22T14:11:10;100807.00;;;36.00;33.73
16613;BME280;8419;52.358;9.752;2023-06-22T14:13:56;100758.00;;;35.92;33.93
16613;BME280;8419;52.358;9.752;2023-06-22T14:16:41;100750.00;;;35.73;34.34
16613;BME280;8419;52.358;9.752;2023-06-22T14:19:27;100778.00;;;35.48;35.08
16613;BME280;8419;52.358;9.752;2023-06-22T14:22:13;100784.00;;;35.36;35.52
16613;BME280;8419;52.358;9.752;2023-06-22T14:24:59;100772.00;;;35.19;36.06
16613;BME280;8419;52.358;9.752;2023-06-22T14:27:44;100771.00;;;35.19;36.28
16613;BME280;8419;52.358;9.752;2023-06-22T14:30:30;100780.00;;;35.19;36.19
16613;BME280;8419;52.358;9.752;2023-06-22T14:33:15;100771.00;;;35.22;36.21
16613;BME280;8419;52.358;9.752;2023-06-22T14:36:01;100754.00;;;35.30;36.02
16613;BME280;8419;52.358;9.752;2023-06-22T14:38:46;100742.00;;;35.41;35.70
16613;BME280;8419;52.358;9.752;2023-06-22T14:41:31;100737.00;;;35.48;35.52